Fort Seneca, Ohio
Current Conditions -  °F | °C
As of 3:53 PM on Friday 24 Oct 2014 (Local Time) from KFDY Reporting Station
Overcast Overcast  
Wind Chill: 62°   Ceiling: 4200
Heat Index: 62°   Visibility: 10mi
Dew Point: 42°   Wind: 8mph
Humidity: 48%   Direction: 230°SW
Pressure: 30.01"   Gusts: NA
Location:  41.154°N, 83.2212°W
Report Text: KFDY 241953Z AUTO 23007KT 10SM OVC042 17/06 A3001 RMK AO2 SLP160 T01670056
Loading
Personal Weather Stations






























Interactive Weather Map
Tropical Storm Tracking
New forecast layout! Learn more

10-Day Weather Forecast

Advertisements
Track Severe Weather on mobile